Terminal Aerodrome Forecast
Issued by NWS

Home | Current Version | Previous Version | Text Only | Print | Product List | Glossary On
Versions: 1 2 3 4 5 6 7 8 9 10 11 12 13 14 15 16 17 18 19 20 21 22 23 24 25 26 27 28 29 30 31 32 33 34
000
FTUS41 KCAR 022000 AAA
TAFFVE
TAF AMD
KFVE 022005Z 0220/0318 16009G16KT P6SM SCT030
     FM022200 17009G16KT P6SM VCTS SCT020CB BKN035
     FM030200 19006KT 3SM -SHRA VCTS OVC008CB
     FM030400 20006KT 1/2SM -SHRA FG OVC003
     FM031100 25008KT P6SM OVC003
     FM031400 30008KT P6SM BKN008
     FM031500 31008KT P6SM BKN045=

USA.gov is the U.S. government's official web portal to all federal, state and local government web resources and services.